Time;durP1;ratioP1;P1;durP2;ratioP2;P2;SDS_P1;SDS_P2;PMS_P1;PMS_P2;Temp;Humidity;BMP_temperature;BMP_pressure;BME280_temperature;BME280_humidity;BME280_pressure;Samples;Min_cycle;Max_cycle;Signal;HPM_P1;HPM_P2
2021/08/27 00:00:02;;;;;;;25.10;18.37;;;;;;;;;;754820;184;919361;-62
2021/08/27 00:02:27;;;;;;;29.50;17.10;;;;;;;;;;758914;183;921645;-62
2021/08/27 00:04:53;;;;;;;28.07;17.43;;;;;;;;;;755678;184;919033;-63
2021/08/27 00:07:19;;;;;;;25.07;15.80;;;;;;;;;;757023;183;918663;-63
2021/08/27 00:09:45;;;;;;;26.53;16.53;;;;;;;;;;760210;183;918851;-62
2021/08/27 00:12:11;;;;;;;22.10;15.77;;;;;;;;;;753431;183;919026;-62
2021/08/27 00:14:37;;;;;;;30.73;17.97;;;;;;;;;;754490;183;919654;-62
2021/08/27 00:17:03;;;;;;;34.23;19.67;;;;;;;;;;753130;183;919367;-64
2021/08/27 00:19:28;;;;;;;33.93;16.77;;;;;;;;;;759431;183;919167;-62
2021/08/27 00:21:54;;;;;;;50.77;21.07;;;;;;;;;;761288;184;918857;-62
2021/08/27 00:24:20;;;;;;;44.10;19.60;;;;;;;;;;754637;184;919890;-63
2021/08/27 00:26:46;;;;;;;50.53;18.50;;;;;;;;;;759018;184;919727;-63
2021/08/27 00:29:12;;;;;;;39.00;19.00;;;;;;;;;;753974;185;919579;-62
2021/08/27 00:31:38;;;;;;;35.27;17.40;;;;;;;;;;753907;184;944518;-63
2021/08/27 00:34:03;;;;;;;59.43;18.43;;;;;;;;;;758779;184;923053;-62
2021/08/27 00:36:29;;;;;;;114.90;22.97;;;;;;;;;;752412;184;919208;-63
2021/08/27 00:38:55;;;;;;;53.53;17.43;;;;;;;;;;754283;184;918036;-62
2021/08/27 00:41:21;;;;;;;56.57;19.47;;;;;;;;;;754862;184;918347;-62
2021/08/27 00:43:47;;;;;;;31.10;18.00;;;;;;;;;;755794;184;919818;-63
2021/08/27 00:46:13;;;;;;;31.17;16.90;;;;;;;;;;755452;184;919830;-62
2021/08/27 00:48:39;;;;;;;25.40;18.33;;;;;;;;;;753374;182;919485;-62
2021/08/27 00:51:04;;;;;;;24.37;15.60;;;;;;;;;;759704;184;918687;-62
2021/08/27 00:53:30;;;;;;;23.50;14.20;;;;;;;;;;754254;181;919558;-64
2021/08/27 00:55:56;;;;;;;24.17;15.23;;;;;;;;;;756523;183;920067;-62
2021/08/27 00:58:23;;;;;;;23.60;15.10;;;;;;;;;;761129;183;918358;-62
2021/08/27 01:00:48;;;;;;;29.80;16.23;;;;;;;;;;749104;184;918502;-62
2021/08/27 01:03:13;;;;;;;27.23;15.10;;;;;;;;;;755492;184;919312;-63
2021/08/27 01:05:40;;;;;;;26.67;14.70;;;;;;;;;;759505;184;919494;-63
2021/08/27 01:08:06;;;;;;;27.23;17.07;;;;;;;;;;754394;183;918814;-63
2021/08/27 01:10:32;;;;;;;33.80;17.50;;;;;;;;;;758677;180;914630;-62
2021/08/27 01:13:04;;;;;;;38.33;16.50;;;;;;;;;;753947;184;919501;-63
2021/08/27 01:15:44;;;;;;;28.20;14.50;;;;;;;;;;761153;183;919391;-62
2021/08/27 01:18:11;;;;;;;41.05;16.92;;;;;;;;;;756499;185;919265;-63
2021/08/27 01:20:41;;;;;;;108.83;18.60;;;;;;;;;;754003;184;918636;-64
2021/08/27 01:23:07;;;;;;;50.23;16.23;;;;;;;;;;754442;183;919417;-64
2021/08/27 01:25:32;;;;;;;35.13;13.70;;;;;;;;;;754959;184;919230;-63
2021/08/27 01:27:58;;;;;;;24.92;13.62;;;;;;;;;;758015;183;919658;-64
2021/08/27 01:30:25;;;;;;;21.80;15.40;;;;;;;;;;755463;181;918957;-63
2021/08/27 01:33:06;;;;;;;22.10;14.32;;;;;;;;;;752184;184;919305;-64
2021/08/27 01:35:32;;;;;;;19.00;13.73;;;;;;;;;;752267;184;919454;-64
2021/08/27 01:37:58;;;;;;;24.20;14.70;;;;;;;;;;760552;184;919810;-63
2021/08/27 01:40:24;;;;;;;25.90;16.83;;;;;;;;;;755711;184;918561;-64
2021/08/27 01:42:50;;;;;;;25.20;16.63;;;;;;;;;;755889;182;927340;-64
2021/08/27 01:45:15;;;;;;;26.67;16.13;;;;;;;;;;758956;183;920319;-64
2021/08/27 01:47:41;;;;;;;21.60;15.27;;;;;;;;;;753469;184;1030869;-63
2021/08/27 01:50:08;;;;;;;27.80;16.87;;;;;;;;;;757412;184;918414;-64
2021/08/27 01:52:34;;;;;;;31.20;16.65;;;;;;;;;;754886;184;919505;-62
2021/08/27 01:55:00;;;;;;;25.63;15.13;;;;;;;;;;759734;181;936822;-64
2021/08/27 01:57:26;;;;;;;27.20;17.77;;;;;;;;;;752644;184;918901;-63
2021/08/27 01:59:51;;;;;;;25.62;17.48;;;;;;;;;;753337;184;918626;-64
2021/08/27 02:02:17;;;;;;;25.93;17.77;;;;;;;;;;761200;184;918919;-64
2021/08/27 02:04:43;;;;;;;36.00;18.65;;;;;;;;;;759361;184;920131;-64
2021/08/27 02:07:09;;;;;;;35.07;18.20;;;;;;;;;;756715;181;919054;-64
2021/08/27 02:09:35;;;;;;;31.70;17.87;;;;;;;;;;761566;183;919632;-64
2021/08/27 02:12:01;;;;;;;27.70;17.70;;;;;;;;;;757662;183;920939;-64
2021/08/27 02:14:26;;;;;;;29.20;17.67;;;;;;;;;;759352;183;919608;-64
2021/08/27 02:16:52;;;;;;;34.63;18.63;;;;;;;;;;760965;183;931111;-63
2021/08/27 02:19:18;;;;;;;28.20;17.23;;;;;;;;;;754013;183;947808;-63
2021/08/27 02:21:45;;;;;;;26.03;15.80;;;;;;;;;;754265;183;918932;-64
2021/08/27 02:24:11;;;;;;;24.50;14.90;;;;;;;;;;753758;182;924789;-64
2021/08/27 02:26:36;;;;;;;25.40;16.33;;;;;;;;;;762608;183;916294;-64
2021/08/27 02:29:02;;;;;;;23.80;14.63;;;;;;;;;;755034;184;921489;-64
2021/08/27 02:31:28;;;;;;;29.27;16.17;;;;;;;;;;754776;183;919411;-64
2021/08/27 02:33:54;;;;;;;25.87;15.13;;;;;;;;;;759434;181;919491;-64
2021/08/27 02:36:20;;;;;;;25.77;14.77;;;;;;;;;;754808;182;918256;-64
2021/08/27 02:38:46;;;;;;;26.33;14.57;;;;;;;;;;753597;184;919318;-64
2021/08/27 02:41:12;;;;;;;28.37;14.40;;;;;;;;;;758319;183;920330;-63
2021/08/27 02:43:37;;;;;;;32.97;15.30;;;;;;;;;;753551;184;919234;-64
2021/08/27 02:46:03;;;;;;;22.63;14.70;;;;;;;;;;755898;184;916649;-64
2021/08/27 02:48:30;;;;;;;25.27;14.07;;;;;;;;;;753818;184;920894;-63
2021/08/27 02:50:57;;;;;;;31.20;15.90;;;;;;;;;;759928;184;919893;-63
2021/08/27 02:53:23;;;;;;;20.70;13.67;;;;;;;;;;751451;184;1092934;-64
2021/08/27 02:55:51;;;;;;;24.90;14.60;;;;;;;;;;750530;180;921608;-65
2021/08/27 02:58:17;;;;;;;22.33;14.93;;;;;;;;;;759149;184;918977;-63
2021/08/27 03:00:50;;;;;;;31.53;13.70;;;;;;;;;;754379;182;921028;-64
2021/08/27 03:03:09;;;;;;;19.55;13.30;;;;;;;;;;753063;183;919108;-63
2021/08/27 03:05:35;;;;;;;23.23;14.20;;;;;;;;;;754123;184;918778;-63
2021/08/27 03:08:01;;;;;;;19.60;12.33;;;;;;;;;;753910;181;919773;-63
2021/08/27 03:10:27;;;;;;;19.00;12.17;;;;;;;;;;752969;184;920823;-64
2021/08/27 03:12:53;;;;;;;19.67;12.70;;;;;;;;;;752516;184;919322;-63
2021/08/27 03:15:29;;;;;;;20.20;12.70;;;;;;;;;;758841;183;914599;-63
2021/08/27 03:17:55;;;;;;;22.40;13.90;;;;;;;;;;743223;184;920632;-64
2021/08/27 03:20:20;;;;;;;16.63;11.70;;;;;;;;;;756622;184;920344;-64
2021/08/27 03:22:46;;;;;;;22.20;13.40;;;;;;;;;;755045;183;915198;-64
2021/08/27 03:25:12;;;;;;;28.63;13.50;;;;;;;;;;760955;183;915699;-63
2021/08/27 03:27:53;;;;;;;16.20;11.73;;;;;;;;;;755834;181;932597;-64
2021/08/27 03:30:20;;;;;;;18.53;11.23;;;;;;;;;;755647;183;916895;-65
2021/08/27 03:32:45;;;;;;;18.77;12.23;;;;;;;;;;755377;183;915265;-65
2021/08/27 03:35:11;;;;;;;25.30;13.03;;;;;;;;;;759025;183;914488;-64
2021/08/27 03:37:37;;;;;;;19.13;11.47;;;;;;;;;;753818;182;915693;-65
2021/08/27 03:40:03;;;;;;;21.70;12.60;;;;;;;;;;753317;183;917900;-65
2021/08/27 03:42:29;;;;;;;19.77;12.63;;;;;;;;;;759020;183;900609;-65
2021/08/27 03:44:55;;;;;;;23.03;11.87;;;;;;;;;;755084;183;918659;-64
2021/08/27 03:47:21;;;;;;;19.02;11.93;;;;;;;;;;755693;183;920472;-64
2021/08/27 03:49:47;;;;;;;19.47;11.67;;;;;;;;;;753883;183;919893;-63
2021/08/27 03:52:12;;;;;;;21.40;12.07;;;;;;;;;;759229;182;919002;-64
2021/08/27 03:54:38;;;;;;;24.23;13.90;;;;;;;;;;753683;182;914422;-64
2021/08/27 03:57:04;;;;;;;16.47;12.70;;;;;;;;;;753424;184;915885;-63
2021/08/27 03:59:30;;;;;;;22.30;10.63;;;;;;;;;;759154;181;921393;-64
2021/08/27 04:01:56;;;;;;;15.90;10.73;;;;;;;;;;755865;184;912650;-64
2021/08/27 04:04:22;;;;;;;21.00;12.17;;;;;;;;;;753290;183;911665;-64
2021/08/27 04:06:52;;;;;;;25.00;11.93;;;;;;;;;;758095;185;914640;-64
2021/08/27 04:09:18;;;;;;;27.13;12.67;;;;;;;;;;754033;184;919982;-64
2021/08/27 04:11:44;;;;;;;20.10;12.02;;;;;;;;;;755151;184;910416;-65
2021/08/27 04:14:10;;;;;;;19.00;12.57;;;;;;;;;;752216;184;915777;-64
2021/08/27 04:16:36;;;;;;;21.00;12.03;;;;;;;;;;758382;183;918604;-63
2021/08/27 04:19:02;;;;;;;22.00;12.50;;;;;;;;;;753707;184;919060;-63
2021/08/27 04:21:28;;;;;;;17.07;11.40;;;;;;;;;;754496;184;914477;-63
2021/08/27 04:23:53;;;;;;;18.57;13.50;;;;;;;;;;758872;184;914289;-63
2021/08/27 04:26:19;;;;;;;20.23;12.50;;;;;;;;;;755862;184;916965;-64
2021/08/27 04:28:45;;;;;;;23.97;14.03;;;;;;;;;;755109;183;912547;-64
2021/08/27 04:31:11;;;;;;;18.50;13.20;;;;;;;;;;760776;180;920425;-63
2021/08/27 04:33:37;;;;;;;20.33;12.50;;;;;;;;;;755974;183;914776;-63
2021/08/27 04:36:03;;;;;;;21.30;12.87;;;;;;;;;;756037;181;916962;-64
2021/08/27 04:38:28;;;;;;;20.40;14.07;;;;;;;;;;754358;182;912715;-63
2021/08/27 04:40:54;;;;;;;20.20;12.90;;;;;;;;;;760195;183;916443;-63
2021/08/27 04:43:20;;;;;;;21.57;12.97;;;;;;;;;;755319;183;913399;-63
2021/08/27 04:45:46;;;;;;;20.10;14.30;;;;;;;;;;752984;183;2227398;-64
2021/08/27 04:48:12;;;;;;;21.45;13.95;;;;;;;;;;761727;181;912329;-63
2021/08/27 04:50:38;;;;;;;30.53;13.60;;;;;;;;;;754882;182;915742;-64
2021/08/27 04:53:04;;;;;;;35.42;14.48;;;;;;;;;;752710;184;919329;-63
2021/08/27 04:55:29;;;;;;;23.30;13.93;;;;;;;;;;760224;183;918996;-63
2021/08/27 04:57:55;;;;;;;23.20;13.37;;;;;;;;;;752548;183;919424;-63
2021/08/27 05:00:21;;;;;;;19.93;14.13;;;;;;;;;;753484;183;919772;-63
2021/08/27 05:02:47;;;;;;;20.77;12.88;;;;;;;;;;754873;183;919039;-63
2021/08/27 05:05:13;;;;;;;24.17;14.13;;;;;;;;;;762127;182;920147;-63
2021/08/27 05:07:39;;;;;;;20.40;13.40;;;;;;;;;;752583;184;919364;-63
2021/08/27 05:10:05;;;;;;;22.67;14.47;;;;;;;;;;754089;181;918738;-64
2021/08/27 05:12:32;;;;;;;22.10;13.17;;;;;;;;;;760740;181;918957;-63
2021/08/27 05:14:57;;;;;;;26.20;14.33;;;;;;;;;;756141;184;920033;-63
2021/08/27 05:17:22;;;;;;;28.05;14.38;;;;;;;;;;752872;184;920124;-66
2021/08/27 05:19:48;;;;;;;26.43;14.93;;;;;;;;;;758989;182;918634;-63
2021/08/27 05:22:14;;;;;;;31.27;16.10;;;;;;;;;;754275;184;919088;-63
2021/08/27 05:24:40;;;;;;;27.07;15.90;;;;;;;;;;754951;184;919291;-63
2021/08/27 05:27:06;;;;;;;35.30;17.33;;;;;;;;;;758911;184;920065;-64
2021/08/27 05:29:32;;;;;;;30.53;16.63;;;;;;;;;;752117;184;918754;-65
2021/08/27 05:31:57;;;;;;;29.17;16.10;;;;;;;;;;754110;184;918774;-65
2021/08/27 05:34:23;;;;;;;29.03;16.77;;;;;;;;;;753568;184;919243;-63
2021/08/27 05:36:49;;;;;;;23.80;15.20;;;;;;;;;;759512;184;918594;-63
2021/08/27 05:39:16;;;;;;;24.70;15.23;;;;;;;;;;755140;184;917642;-63
2021/08/27 05:41:41;;;;;;;27.63;15.73;;;;;;;;;;755908;183;941789;-63
2021/08/27 05:44:07;;;;;;;24.37;15.67;;;;;;;;;;761769;183;918522;-62
2021/08/27 05:46:32;;;;;;;23.37;16.20;;;;;;;;;;755901;183;919457;-63
2021/08/27 05:48:58;;;;;;;23.23;15.73;;;;;;;;;;755358;183;919592;-62
2021/08/27 05:51:24;;;;;;;26.10;15.83;;;;;;;;;;760674;181;895549;-63
2021/08/27 05:53:50;;;;;;;22.93;15.03;;;;;;;;;;755549;183;931591;-63
2021/08/27 05:56:16;;;;;;;29.80;13.70;;;;;;;;;;755271;184;918543;-63
2021/08/27 05:58:42;;;;;;;23.33;14.20;;;;;;;;;;753273;183;918181;-64
2021/08/27 06:01:07;;;;;;;22.93;14.00;;;;;;;;;;761004;181;917248;-62
2021/08/27 06:03:33;;;;;;;25.73;14.50;;;;;;;;;;757854;183;920159;-63
2021/08/27 06:05:59;;;;;;;18.43;13.30;;;;;;;;;;752798;182;920021;-62
2021/08/27 06:08:25;;;;;;;19.90;13.70;;;;;;;;;;759192;184;918641;-63
2021/08/27 06:10:51;;;;;;;28.83;14.37;;;;;;;;;;758096;183;918645;-62
2021/08/27 06:13:17;;;;;;;25.85;15.20;;;;;;;;;;756804;184;918867;-62
2021/08/27 06:15:44;;;;;;;20.17;14.37;;;;;;;;;;759092;184;941524;-63
2021/08/27 06:18:08;;;;;;;20.60;13.83;;;;;;;;;;757247;184;918973;-63
2021/08/27 06:20:34;;;;;;;25.73;14.27;;;;;;;;;;754299;184;920153;-62
2021/08/27 06:23:01;;;;;;;20.88;14.23;;;;;;;;;;757972;184;919162;-62
2021/08/27 06:25:26;;;;;;;19.00;14.13;;;;;;;;;;760502;183;919138;-64
2021/08/27 06:27:52;;;;;;;25.50;12.90;;;;;;;;;;753677;184;919187;-64
2021/08/27 06:30:18;;;;;;;16.60;13.32;;;;;;;;;;752342;184;919464;-64
2021/08/27 06:32:44;;;;;;;17.63;12.57;;;;;;;;;;760630;184;918990;-64
2021/08/27 06:35:10;;;;;;;18.30;11.33;;;;;;;;;;755476;184;919308;-65
2021/08/27 06:40:08;;;;;;;17.50;11.53;;;;;;;;;;757674;182;848827;-65
2021/08/27 06:42:34;;;;;;;14.97;11.10;;;;;;;;;;749821;182;919954;-65
2021/08/27 06:45:00;;;;;;;14.38;11.50;;;;;;;;;;754163;184;922394;-65
2021/08/27 06:47:26;;;;;;;14.13;11.47;;;;;;;;;;753319;184;919709;-65
2021/08/27 06:49:51;;;;;;;21.63;12.53;;;;;;;;;;758851;183;919458;-64
2021/08/27 06:52:17;;;;;;;14.43;11.47;;;;;;;;;;759734;180;919762;-64
2021/08/27 06:54:43;;;;;;;17.93;11.30;;;;;;;;;;757604;180;918590;-66
2021/08/27 06:57:09;;;;;;;15.53;11.70;;;;;;;;;;759961;183;927873;-67
2021/08/27 06:59:35;;;;;;;11.77;9.07;;;;;;;;;;755936;184;919511;-65
2021/08/27 07:02:01;;;;;;;14.23;10.37;;;;;;;;;;755424;182;919648;-65
2021/08/27 07:04:27;;;;;;;13.73;10.80;;;;;;;;;;759554;182;918101;-66
2021/08/27 07:06:52;;;;;;;16.50;11.07;;;;;;;;;;754450;181;1020800;-66
2021/08/27 07:09:18;;;;;;;13.47;10.70;;;;;;;;;;754491;184;918323;-66
2021/08/27 07:11:44;;;;;;;15.77;10.43;;;;;;;;;;754245;183;930721;-66
2021/08/27 07:14:10;;;;;;;20.83;12.47;;;;;;;;;;759717;184;918852;-66
2021/08/27 07:16:36;;;;;;;13.53;11.67;;;;;;;;;;755668;183;917705;-66
2021/08/27 07:19:02;;;;;;;18.10;12.80;;;;;;;;;;753815;184;919371;-66
2021/08/27 07:21:28;;;;;;;18.33;12.60;;;;;;;;;;759653;180;917484;-65
2021/08/27 07:23:54;;;;;;;21.83;14.23;;;;;;;;;;755837;183;919016;-64
2021/08/27 07:26:19;;;;;;;19.03;14.50;;;;;;;;;;755014;183;927860;-66
2021/08/27 07:28:45;;;;;;;23.43;16.40;;;;;;;;;;757663;183;919242;-65
2021/08/27 07:31:11;;;;;;;20.40;16.00;;;;;;;;;;752625;184;1020791;-65
2021/08/27 07:33:37;;;;;;;29.50;18.77;;;;;;;;;;752332;182;918181;-65
2021/08/27 07:36:03;;;;;;;28.57;17.23;;;;;;;;;;755362;184;918524;-64
2021/08/27 07:38:30;;;;;;;26.90;18.97;;;;;;;;;;754060;181;918729;-64
2021/08/27 07:40:55;;;;;;;31.47;19.93;;;;;;;;;;753465;184;919581;-65
2021/08/27 07:43:21;;;;;;;34.03;19.17;;;;;;;;;;751951;182;994851;-64
2021/08/27 07:45:48;;;;;;;27.20;18.07;;;;;;;;;;759031;184;919458;-64
2021/08/27 07:48:13;;;;;;;25.03;19.47;;;;;;;;;;756284;184;918436;-65
2021/08/27 07:50:39;;;;;;;27.17;19.02;;;;;;;;;;753153;184;919439;-65
2021/08/27 07:53:05;;;;;;;23.63;18.40;;;;;;;;;;761935;184;940923;-65
2021/08/27 07:55:31;;;;;;;20.27;16.73;;;;;;;;;;757338;183;918920;-64
2021/08/27 07:57:56;;;;;;;22.53;16.73;;;;;;;;;;758075;184;919303;-65
2021/08/27 08:00:23;;;;;;;22.00;16.35;;;;;;;;;;758188;184;918778;-64
2021/08/27 08:02:49;;;;;;;18.23;15.73;;;;;;;;;;762889;181;918776;-64
2021/08/27 08:05:14;;;;;;;19.70;15.73;;;;;;;;;;757637;183;918012;-64
2021/08/27 08:07:40;;;;;;;24.60;16.55;;;;;;;;;;755801;183;920721;-64
2021/08/27 08:10:06;;;;;;;18.00;15.57;;;;;;;;;;761336;183;920207;-63
2021/08/27 08:12:32;;;;;;;19.00;16.70;;;;;;;;;;755802;182;919257;-63
2021/08/27 08:14:58;;;;;;;18.75;14.80;;;;;;;;;;756007;184;1020618;-63
2021/08/27 08:17:24;;;;;;;23.50;15.27;;;;;;;;;;761514;183;920282;-63
2021/08/27 08:19:50;;;;;;;26.40;16.57;;;;;;;;;;754378;184;919108;-63
2021/08/27 08:22:17;;;;;;;18.30;14.87;;;;;;;;;;756626;183;919602;-63
2021/08/27 08:24:42;;;;;;;22.17;13.27;;;;;;;;;;759370;183;920244;-62
2021/08/27 08:27:07;;;;;;;15.90;14.30;;;;;;;;;;755441;183;919997;-63
2021/08/27 08:29:33;;;;;;;14.53;12.37;;;;;;;;;;753711;184;926929;-63
2021/08/27 08:31:59;;;;;;;26.63;11.97;;;;;;;;;;754439;182;917650;-64
2021/08/27 08:34:25;;;;;;;12.27;11.00;;;;;;;;;;759521;184;919711;-63
2021/08/27 08:36:51;;;;;;;14.73;12.33;;;;;;;;;;756196;183;918636;-63
2021/08/27 08:39:17;;;;;;;14.70;12.27;;;;;;;;;;754196;184;928588;-62
2021/08/27 08:41:42;;;;;;;14.70;12.20;;;;;;;;;;759992;184;918801;-64
2021/08/27 08:44:08;;;;;;;13.27;11.40;;;;;;;;;;756572;184;921248;-63
2021/08/27 08:46:34;;;;;;;14.30;12.80;;;;;;;;;;753790;184;920314;-63
2021/08/27 08:49:00;;;;;;;13.27;11.33;;;;;;;;;;759120;181;919745;-64
2021/08/27 08:51:26;;;;;;;16.90;14.47;;;;;;;;;;754510;184;917819;-63
2021/08/27 08:53:52;;;;;;;15.77;12.53;;;;;;;;;;753109;184;919112;-63
2021/08/27 08:56:18;;;;;;;20.17;13.70;;;;;;;;;;753689;184;919828;-62
2021/08/27 08:58:44;;;;;;;19.57;15.40;;;;;;;;;;761607;181;918094;-62
2021/08/27 09:01:16;;;;;;;15.53;12.70;;;;;;;;;;755449;182;916177;-63
2021/08/27 09:03:36;;;;;;;14.00;12.50;;;;;;;;;;755092;184;920190;-62
2021/08/27 09:06:01;;;;;;;16.30;12.43;;;;;;;;;;762093;184;617128;-62
2021/08/27 09:08:32;;;;;;;15.30;12.50;;;;;;;;;;754697;184;918301;-63
2021/08/27 09:10:57;;;;;;;14.17;11.60;;;;;;;;;;753967;182;920800;-63
2021/08/27 09:13:23;;;;;;;15.70;13.07;;;;;;;;;;758474;184;917775;-65
2021/08/27 09:15:49;;;;;;;14.47;12.53;;;;;;;;;;750041;183;921169;-65
2021/08/27 09:18:14;;;;;;;13.77;11.50;;;;;;;;;;753648;184;919144;-65
2021/08/27 09:20:40;;;;;;;14.07;12.67;;;;;;;;;;756804;181;920463;-65
2021/08/27 09:23:07;;;;;;;13.50;12.07;;;;;;;;;;760947;181;919008;-63
2021/08/27 09:25:33;;;;;;;12.03;10.73;;;;;;;;;;754450;184;920887;-63
2021/08/27 09:27:59;;;;;;;13.77;10.83;;;;;;;;;;754756;183;911281;-63
2021/08/27 09:30:25;;;;;;;12.20;10.90;;;;;;;;;;760949;182;913443;-62
2021/08/27 09:32:51;;;;;;;12.00;10.70;;;;;;;;;;759306;183;915997;-63
2021/08/27 09:35:19;;;;;;;14.97;11.33;;;;;;;;;;755788;183;918277;-63
2021/08/27 09:37:45;;;;;;;10.60;9.40;;;;;;;;;;756627;182;915872;-63
2021/08/27 09:40:11;;;;;;;13.47;11.33;;;;;;;;;;757079;181;916542;-63
2021/08/27 09:42:37;;;;;;;12.90;11.27;;;;;;;;;;756629;181;915778;-63
2021/08/27 09:45:03;;;;;;;11.50;10.30;;;;;;;;;;754149;182;915961;-64
2021/08/27 09:47:29;;;;;;;11.70;10.33;;;;;;;;;;761209;184;915232;-63
2021/08/27 09:49:55;;;;;;;13.73;12.33;;;;;;;;;;754764;184;916690;-63
2021/08/27 09:52:21;;;;;;;12.98;11.60;;;;;;;;;;753962;184;1016605;-63
2021/08/27 09:54:48;;;;;;;13.07;10.73;;;;;;;;;;759014;183;919248;-65
2021/08/27 09:57:13;;;;;;;18.07;12.10;;;;;;;;;;755154;185;917473;-63
2021/08/27 09:59:39;;;;;;;14.55;11.65;;;;;;;;;;754461;184;916418;-63
2021/08/27 10:02:06;;;;;;;13.52;11.95;;;;;;;;;;757165;181;1063191;-63
2021/08/27 10:04:32;;;;;;;11.03;9.60;;;;;;;;;;755286;184;915503;-63
2021/08/27 10:06:58;;;;;;;10.30;9.30;;;;;;;;;;753770;184;915641;-64
2021/08/27 10:09:24;;;;;;;11.03;9.63;;;;;;;;;;752701;181;916311;-62
2021/08/27 10:11:58;;;;;;;12.53;9.50;;;;;;;;;;760653;184;916469;-64
2021/08/27 10:14:23;;;;;;;10.83;9.60;;;;;;;;;;754622;184;911811;-64
2021/08/27 10:16:50;;;;;;;13.70;10.52;;;;;;;;;;753971;184;916656;-66
2021/08/27 10:19:16;;;;;;;11.77;10.47;;;;;;;;;;753181;184;912695;-64
2021/08/27 10:21:42;;;;;;;12.70;10.90;;;;;;;;;;760912;184;918557;-64
2021/08/27 10:24:07;;;;;;;13.37;11.97;;;;;;;;;;754951;184;912174;-64
2021/08/27 10:26:33;;;;;;;12.07;10.38;;;;;;;;;;753705;182;913243;-64
2021/08/27 10:29:05;;;;;;;11.23;10.03;;;;;;;;;;761420;183;907902;-64
2021/08/27 10:31:36;;;;;;;13.50;10.60;;;;;;;;;;755947;183;919575;-64
2021/08/27 10:34:01;;;;;;;12.03;10.83;;;;;;;;;;756279;183;918071;-64
2021/08/27 10:36:44;;;;;;;11.67;10.47;;;;;;;;;;755171;184;969681;-64
2021/08/27 10:39:10;;;;;;;12.23;10.50;;;;;;;;;;755001;181;918891;-65
2021/08/27 10:41:37;;;;;;;11.37;9.97;;;;;;;;;;761013;183;918449;-64
2021/08/27 10:44:10;;;;;;;12.63;11.30;;;;;;;;;;755095;181;919637;-65
2021/08/27 10:46:42;;;;;;;10.90;9.60;;;;;;;;;;754646;185;920185;-64
2021/08/27 10:49:08;;;;;;;12.80;10.20;;;;;;;;;;755037;183;919323;-64
2021/08/27 10:51:34;;;;;;;12.88;9.05;;;;;;;;;;759315;183;919280;-64
2021/08/27 10:54:00;;;;;;;13.63;9.13;;;;;;;;;;755189;184;919021;-64
2021/08/27 10:56:31;;;;;;;10.63;9.40;;;;;;;;;;755942;183;918970;-65
2021/08/27 10:58:57;;;;;;;13.00;10.10;;;;;;;;;;754417;183;919548;-64
2021/08/27 11:01:28;;;;;;;12.40;9.33;;;;;;;;;;758658;183;919523;-65
2021/08/27 11:04:09;;;;;;;11.10;10.00;;;;;;;;;;753668;183;939028;-63
2021/08/27 11:06:48;;;;;;;11.30;8.13;;;;;;;;;;753824;182;919161;-64
2021/08/27 11:09:14;;;;;;;10.77;9.67;;;;;;;;;;753523;183;918624;-63
2021/08/27 11:11:40;;;;;;;10.40;9.23;;;;;;;;;;754472;183;919893;-63
2021/08/27 11:14:12;;;;;;;11.47;8.43;;;;;;;;;;759368;184;919664;-64
2021/08/27 11:16:38;;;;;;;10.40;7.50;;;;;;;;;;753890;184;919970;-64
2021/08/27 11:19:04;;;;;;;10.57;8.52;;;;;;;;;;747377;185;918512;-64
2021/08/27 11:21:34;;;;;;;9.80;8.80;;;;;;;;;;751341;184;919788;-64
2021/08/27 11:24:05;;;;;;;11.80;9.33;;;;;;;;;;760681;184;919388;-64
2021/08/27 11:26:37;;;;;;;11.90;10.73;;;;;;;;;;755637;182;919475;-64
2021/08/27 11:29:03;;;;;;;14.20;10.10;;;;;;;;;;756213;184;920322;-63
2021/08/27 11:31:29;;;;;;;9.40;8.60;;;;;;;;;;751949;184;918371;-64
2021/08/27 11:33:55;;;;;;;10.17;9.10;;;;;;;;;;756239;184;918726;-64
2021/08/27 11:36:21;;;;;;;9.27;8.37;;;;;;;;;;753884;184;919509;-64
2021/08/27 11:38:50;;;;;;;9.30;8.40;;;;;;;;;;755575;183;919030;-64
2021/08/27 11:41:16;;;;;;;9.77;7.55;;;;;;;;;;758063;181;918615;-63
2021/08/27 11:43:47;;;;;;;8.20;7.00;;;;;;;;;;750314;184;919266;-64
2021/08/27 11:46:13;;;;;;;7.23;6.53;;;;;;;;;;757019;183;918621;-64
2021/08/27 11:48:40;;;;;;;8.47;6.87;;;;;;;;;;755706;184;922149;-65
2021/08/27 11:51:05;;;;;;;7.70;6.90;;;;;;;;;;760820;184;918784;-65
2021/08/27 11:53:31;;;;;;;8.23;6.93;;;;;;;;;;758889;183;918343;-64
2021/08/27 11:55:57;;;;;;;6.35;5.45;;;;;;;;;;756977;183;919681;-65
2021/08/27 11:58:25;;;;;;;7.20;5.57;;;;;;;;;;757274;183;919515;-64
2021/08/27 12:00:49;;;;;;;6.30;5.70;;;;;;;;;;763088;181;919330;-64
2021/08/27 12:03:17;;;;;;;6.07;4.73;;;;;;;;;;758562;184;618188;-65
2021/08/27 12:05:42;;;;;;;5.93;5.40;;;;;;;;;;758042;183;628834;-64
2021/08/27 12:08:08;;;;;;;4.43;4.00;;;;;;;;;;761967;183;629806;-65
2021/08/27 12:10:34;;;;;;;5.80;4.30;;;;;;;;;;758349;181;917820;-65
2021/08/27 12:13:00;;;;;;;6.22;4.43;;;;;;;;;;758612;184;927084;-65
2021/08/27 12:15:26;;;;;;;4.20;3.80;;;;;;;;;;758760;181;918846;-65
2021/08/27 12:17:54;;;;;;;5.97;5.47;;;;;;;;;;755326;184;918736;-64
2021/08/27 12:20:20;;;;;;;7.70;4.93;;;;;;;;;;754380;184;919902;-65
2021/08/27 12:22:48;;;;;;;8.20;4.80;;;;;;;;;;753089;181;918804;-66
2021/08/27 12:25:19;;;;;;;5.00;3.90;;;;;;;;;;763990;181;919445;-64
2021/08/27 12:27:46;;;;;;;6.93;3.90;;;;;;;;;;752611;184;918690;-65
2021/08/27 12:30:12;;;;;;;5.83;5.00;;;;;;;;;;756969;184;919472;-63
2021/08/27 12:32:37;;;;;;;7.20;6.50;;;;;;;;;;760365;184;918823;-65
2021/08/27 12:35:05;;;;;;;7.80;5.30;;;;;;;;;;753772;181;918296;-65
2021/08/27 12:37:30;;;;;;;8.17;5.50;;;;;;;;;;754590;184;919709;-65
2021/08/27 12:39:56;;;;;;;5.87;5.10;;;;;;;;;;753470;184;935896;-66
2021/08/27 12:42:22;;;;;;;5.17;4.67;;;;;;;;;;760288;184;919535;-63
2021/08/27 12:44:54;;;;;;;6.37;5.77;;;;;;;;;;753706;184;919375;-66
2021/08/27 12:47:20;;;;;;;6.73;5.13;;;;;;;;;;754839;184;918939;-66
2021/08/27 12:50:02;;;;;;;5.43;4.32;;;;;;;;;;758267;184;948645;-64
2021/08/27 12:52:28;;;;;;;6.53;4.70;;;;;;;;;;757271;184;919831;-64
2021/08/27 12:54:54;;;;;;;6.63;5.17;;;;;;;;;;755082;183;919520;-64
2021/08/27 12:57:19;;;;;;;10.90;4.67;;;;;;;;;;754545;183;918790;-64
2021/08/27 12:59:51;;;;;;;3.70;3.20;;;;;;;;;;754267;183;919369;-66
2021/08/27 13:02:18;;;;;;;7.73;5.10;;;;;;;;;;760204;183;919381;-64
2021/08/27 13:04:43;;;;;;;3.77;3.40;;;;;;;;;;755722;183;919390;-65
2021/08/27 13:07:24;;;;;;;4.33;2.90;;;;;;;;;;755292;184;919007;-69
2021/08/27 13:09:49;;;;;;;4.50;2.60;;;;;;;;;;755296;184;920253;-64
2021/08/27 13:12:15;;;;;;;3.87;2.80;;;;;;;;;;759700;183;919142;-65
2021/08/27 13:14:41;;;;;;;3.60;2.87;;;;;;;;;;747635;185;919832;-64
2021/08/27 13:17:08;;;;;;;4.43;3.25;;;;;;;;;;753591;183;992233;-65
2021/08/27 13:19:39;;;;;;;5.07;3.60;;;;;;;;;;754173;183;919379;-66
2021/08/27 13:22:08;;;;;;;3.87;3.00;;;;;;;;;;763602;183;917776;-65
2021/08/27 13:24:34;;;;;;;3.87;2.90;;;;;;;;;;751303;185;918695;-64
2021/08/27 13:27:00;;;;;;;4.23;2.57;;;;;;;;;;751223;183;1257582;-66
2021/08/27 13:29:26;;;;;;;4.27;3.20;;;;;;;;;;759438;184;918961;-65
2021/08/27 13:31:51;;;;;;;2.57;1.93;;;;;;;;;;755264;182;924840;-65
2021/08/27 13:34:17;;;;;;;6.37;2.77;;;;;;;;;;758495;184;918602;-65
2021/08/27 13:36:43;;;;;;;4.53;3.20;;;;;;;;;;755153;184;918388;-65
2021/08/27 13:39:12;;;;;;;4.43;3.57;;;;;;;;;;762767;184;630926;-65
2021/08/27 13:41:35;;;;;;;4.27;3.23;;;;;;;;;;756761;181;918864;-65
2021/08/27 13:44:01;;;;;;;6.53;2.90;;;;;;;;;;754826;184;917941;-66
2021/08/27 13:46:27;;;;;;;3.27;2.67;;;;;;;;;;758000;183;918368;-65
2021/08/27 13:48:53;;;;;;;3.30;2.63;;;;;;;;;;754518;182;920443;-65
2021/08/27 13:51:19;;;;;;;4.00;2.45;;;;;;;;;;753273;184;919303;-65
2021/08/27 13:53:45;;;;;;;6.93;3.33;;;;;;;;;;758513;182;916179;-68
2021/08/27 13:56:11;;;;;;;6.20;4.03;;;;;;;;;;753990;183;915876;-65
2021/08/27 13:58:37;;;;;;;6.03;4.33;;;;;;;;;;754821;184;924077;-65
2021/08/27 14:01:02;;;;;;;9.43;4.43;;;;;;;;;;753013;184;918857;-65
2021/08/27 14:03:28;;;;;;;3.97;3.13;;;;;;;;;;759838;183;919293;-65
2021/08/27 14:05:54;;;;;;;5.10;2.77;;;;;;;;;;758142;183;919299;-63